sensor_id;sensor_type;location;lat;lon;timestamp;P1;durP1;ratioP1;P2;durP2;ratioP2
75054;SDS011;63636;44.746;10.488;2022-12-01T00:02:12;53.38;;;25.67;;
75054;SDS011;63636;44.746;10.488;2022-12-01T00:04:37;48.42;;;24.85;;
75054;SDS011;63636;44.746;10.488;2022-12-01T00:07:03;55.70;;;25.25;;
75054;SDS011;63636;44.746;10.488;2022-12-01T00:09:28;53.90;;;24.60;;
75054;SDS011;63636;44.746;10.488;2022-12-01T00:12:12;51.65;;;23.35;;
75054;SDS011;63636;44.746;10.488;2022-12-01T00:14:38;50.88;;;24.40;;
75054;SDS011;63636;44.746;10.488;2022-12-01T00:17:04;52.60;;;23.80;;
75054;SDS011;63636;44.746;10.488;2022-12-01T00:19:29;52.40;;;24.23;;
75054;SDS011;63636;44.746;10.488;2022-12-01T00:21:55;51.92;;;23.77;;
75054;SDS011;63636;44.746;10.488;2022-12-01T00:24:21;49.17;;;23.98;;
75054;SDS011;63636;44.746;10.488;2022-12-01T00:26:48;51.45;;;23.95;;
75054;SDS011;63636;44.746;10.488;2022-12-01T00:29:13;49.78;;;24.00;;
75054;SDS011;63636;44.746;10.488;2022-12-01T00:31:39;51.35;;;24.42;;
75054;SDS011;63636;44.746;10.488;2022-12-01T00:34:05;52.03;;;23.23;;
75054;SDS011;63636;44.746;10.488;2022-12-01T00:36:31;46.72;;;23.17;;
75054;SDS011;63636;44.746;10.488;2022-12-01T00:38:56;55.78;;;23.48;;
75054;SDS011;63636;44.746;10.488;2022-12-01T00:41:23;51.60;;;23.80;;
75054;SDS011;63636;44.746;10.488;2022-12-01T00:43:49;51.15;;;22.95;;
75054;SDS011;63636;44.746;10.488;2022-12-01T00:46:15;51.47;;;23.05;;
75054;SDS011;63636;44.746;10.488;2022-12-01T00:48:41;50.00;;;23.23;;
75054;SDS011;63636;44.746;10.488;2022-12-01T00:51:06;51.75;;;23.30;;
75054;SDS011;63636;44.746;10.488;2022-12-01T00:53:32;48.08;;;22.83;;
75054;SDS011;63636;44.746;10.488;2022-12-01T00:55:57;50.25;;;23.50;;
75054;SDS011;63636;44.746;10.488;2022-12-01T00:58:23;48.72;;;23.17;;
75054;SDS011;63636;44.746;10.488;2022-12-01T01:00:55;48.60;;;22.48;;
75054;SDS011;63636;44.746;10.488;2022-12-01T01:03:21;48.90;;;22.25;;
75054;SDS011;63636;44.746;10.488;2022-12-01T01:05:47;52.30;;;22.40;;
75054;SDS011;63636;44.746;10.488;2022-12-01T01:08:13;49.85;;;22.58;;
75054;SDS011;63636;44.746;10.488;2022-12-01T01:10:43;47.30;;;22.55;;
75054;SDS011;63636;44.746;10.488;2022-12-01T01:13:08;49.00;;;23.02;;
75054;SDS011;63636;44.746;10.488;2022-12-01T01:15:34;48.38;;;21.88;;
75054;SDS011;63636;44.746;10.488;2022-12-01T01:17:59;48.13;;;22.73;;
75054;SDS011;63636;44.746;10.488;2022-12-01T01:20:25;49.03;;;21.23;;
75054;SDS011;63636;44.746;10.488;2022-12-01T01:22:51;52.00;;;22.25;;
75054;SDS011;63636;44.746;10.488;2022-12-01T01:25:16;46.83;;;21.80;;
75054;SDS011;63636;44.746;10.488;2022-12-01T01:27:42;49.75;;;23.10;;
75054;SDS011;63636;44.746;10.488;2022-12-01T01:30:07;46.63;;;22.20;;
75054;SDS011;63636;44.746;10.488;2022-12-01T01:32:33;46.25;;;20.98;;
75054;SDS011;63636;44.746;10.488;2022-12-01T01:34:58;51.03;;;22.25;;
75054;SDS011;63636;44.746;10.488;2022-12-01T01:37:24;45.97;;;22.30;;
75054;SDS011;63636;44.746;10.488;2022-12-01T01:39:49;48.13;;;22.60;;
75054;SDS011;63636;44.746;10.488;2022-12-01T01:42:16;48.28;;;22.27;;
75054;SDS011;63636;44.746;10.488;2022-12-01T01:44:47;50.10;;;21.60;;
75054;SDS011;63636;44.746;10.488;2022-12-01T01:47:37;45.45;;;21.13;;
75054;SDS011;63636;44.746;10.488;2022-12-01T01:50:03;47.58;;;21.55;;
75054;SDS011;63636;44.746;10.488;2022-12-01T01:52:31;48.60;;;21.27;;
75054;SDS011;63636;44.746;10.488;2022-12-01T01:54:57;46.60;;;20.70;;
75054;SDS011;63636;44.746;10.488;2022-12-01T01:57:27;44.40;;;21.27;;
75054;SDS011;63636;44.746;10.488;2022-12-01T01:59:55;48.45;;;21.98;;
75054;SDS011;63636;44.746;10.488;2022-12-01T02:02:22;46.83;;;21.42;;
75054;SDS011;63636;44.746;10.488;2022-12-01T02:04:52;43.72;;;20.75;;
75054;SDS011;63636;44.746;10.488;2022-12-01T02:07:19;50.95;;;23.00;;
75054;SDS011;63636;44.746;10.488;2022-12-01T02:09:45;47.17;;;20.77;;
75054;SDS011;63636;44.746;10.488;2022-12-01T02:17:21;48.03;;;21.67;;
75054;SDS011;63636;44.746;10.488;2022-12-01T02:35:23;49.97;;;22.20;;
75054;SDS011;63636;44.746;10.488;2022-12-01T02:40:42;46.28;;;20.58;;
75054;SDS011;63636;44.746;10.488;2022-12-01T02:48:04;47.97;;;21.05;;
75054;SDS011;63636;44.746;10.488;2022-12-01T02:50:31;52.17;;;22.48;;
75054;SDS011;63636;44.746;10.488;2022-12-01T02:52:58;47.65;;;21.67;;
75054;SDS011;63636;44.746;10.488;2022-12-01T02:55:24;48.30;;;22.70;;
75054;SDS011;63636;44.746;10.488;2022-12-01T02:57:49;48.35;;;21.45;;
75054;SDS011;63636;44.746;10.488;2022-12-01T03:00:15;48.58;;;21.55;;
75054;SDS011;63636;44.746;10.488;2022-12-01T03:05:22;47.65;;;22.73;;
75054;SDS011;63636;44.746;10.488;2022-12-01T03:21:15;51.95;;;22.52;;
75054;SDS011;63636;44.746;10.488;2022-12-01T03:23:52;50.97;;;21.67;;
75054;SDS011;63636;44.746;10.488;2022-12-01T03:26:20;47.15;;;22.23;;
75054;SDS011;63636;44.746;10.488;2022-12-01T03:28:48;49.45;;;22.00;;
75054;SDS011;63636;44.746;10.488;2022-12-01T03:31:16;51.60;;;22.88;;
75054;SDS011;63636;44.746;10.488;2022-12-01T03:33:48;47.42;;;21.75;;
75054;SDS011;63636;44.746;10.488;2022-12-01T03:36:20;51.40;;;21.80;;
75054;SDS011;63636;44.746;10.488;2022-12-01T03:38:51;49.20;;;22.55;;
75054;SDS011;63636;44.746;10.488;2022-12-01T03:41:20;51.37;;;22.10;;
75054;SDS011;63636;44.746;10.488;2022-12-01T03:43:49;48.97;;;21.98;;
75054;SDS011;63636;44.746;10.488;2022-12-01T03:47:02;49.33;;;21.08;;
75054;SDS011;63636;44.746;10.488;2022-12-01T03:49:02;47.97;;;22.30;;
75054;SDS011;63636;44.746;10.488;2022-12-01T03:51:39;48.55;;;22.15;;
75054;SDS011;63636;44.746;10.488;2022-12-01T03:56:37;45.80;;;21.52;;
75054;SDS011;63636;44.746;10.488;2022-12-01T03:59:04;48.28;;;22.15;;
75054;SDS011;63636;44.746;10.488;2022-12-01T04:01:33;51.67;;;23.00;;
75054;SDS011;63636;44.746;10.488;2022-12-01T04:04:07;46.25;;;20.73;;
75054;SDS011;63636;44.746;10.488;2022-12-01T04:06:33;51.47;;;23.00;;
75054;SDS011;63636;44.746;10.488;2022-12-01T04:08:58;48.45;;;21.67;;
75054;SDS011;63636;44.746;10.488;2022-12-01T04:11:24;49.25;;;22.75;;
75054;SDS011;63636;44.746;10.488;2022-12-01T04:14:08;47.83;;;21.42;;
75054;SDS011;63636;44.746;10.488;2022-12-01T04:16:33;48.60;;;22.35;;
75054;SDS011;63636;44.746;10.488;2022-12-01T04:18:59;50.30;;;22.80;;
75054;SDS011;63636;44.746;10.488;2022-12-01T04:21:25;49.78;;;22.38;;
75054;SDS011;63636;44.746;10.488;2022-12-01T04:23:50;50.03;;;22.63;;
75054;SDS011;63636;44.746;10.488;2022-12-01T04:26:25;48.95;;;21.92;;
75054;SDS011;63636;44.746;10.488;2022-12-01T04:28:51;55.55;;;22.73;;
75054;SDS011;63636;44.746;10.488;2022-12-01T04:31:16;50.90;;;22.20;;
75054;SDS011;63636;44.746;10.488;2022-12-01T04:33:42;50.30;;;23.05;;
75054;SDS011;63636;44.746;10.488;2022-12-01T04:36:08;55.10;;;24.55;;
75054;SDS011;63636;44.746;10.488;2022-12-01T04:38:33;55.33;;;23.55;;
75054;SDS011;63636;44.746;10.488;2022-12-01T04:41:06;53.45;;;23.52;;
75054;SDS011;63636;44.746;10.488;2022-12-01T04:43:32;54.10;;;23.95;;
75054;SDS011;63636;44.746;10.488;2022-12-01T04:45:58;53.80;;;23.60;;
75054;SDS011;63636;44.746;10.488;2022-12-01T04:48:23;51.90;;;23.80;;
75054;SDS011;63636;44.746;10.488;2022-12-01T04:50:49;52.97;;;23.80;;
75054;SDS011;63636;44.746;10.488;2022-12-01T04:53:14;51.60;;;23.17;;
75054;SDS011;63636;44.746;10.488;2022-12-01T04:55:40;52.25;;;22.88;;
75054;SDS011;63636;44.746;10.488;2022-12-01T04:58:05;50.92;;;23.65;;
75054;SDS011;63636;44.746;10.488;2022-12-01T05:00:31;53.08;;;22.58;;
75054;SDS011;63636;44.746;10.488;2022-12-01T05:02:57;51.33;;;22.83;;
75054;SDS011;63636;44.746;10.488;2022-12-01T05:05:23;50.75;;;23.02;;
75054;SDS011;63636;44.746;10.488;2022-12-01T05:07:48;49.95;;;22.73;;
75054;SDS011;63636;44.746;10.488;2022-12-01T05:10:14;56.17;;;24.40;;
75054;SDS011;63636;44.746;10.488;2022-12-01T05:12:40;52.85;;;24.05;;
75054;SDS011;63636;44.746;10.488;2022-12-01T05:15:06;50.80;;;22.63;;
75054;SDS011;63636;44.746;10.488;2022-12-01T05:17:31;54.13;;;24.65;;
75054;SDS011;63636;44.746;10.488;2022-12-01T05:19:57;53.33;;;23.98;;
75054;SDS011;63636;44.746;10.488;2022-12-01T05:22:41;52.95;;;23.13;;
75054;SDS011;63636;44.746;10.488;2022-12-01T05:25:07;53.92;;;24.13;;
75054;SDS011;63636;44.746;10.488;2022-12-01T05:27:32;56.75;;;24.23;;
75054;SDS011;63636;44.746;10.488;2022-12-01T05:29:58;56.05;;;24.20;;
75054;SDS011;63636;44.746;10.488;2022-12-01T05:32:23;51.40;;;23.92;;
75054;SDS011;63636;44.746;10.488;2022-12-01T05:34:49;52.50;;;23.95;;
75054;SDS011;63636;44.746;10.488;2022-12-01T05:37:14;49.50;;;23.13;;
75054;SDS011;63636;44.746;10.488;2022-12-01T05:39:40;51.42;;;22.73;;
75054;SDS011;63636;44.746;10.488;2022-12-01T05:42:05;49.40;;;22.30;;
75054;SDS011;63636;44.746;10.488;2022-12-01T05:44:31;53.17;;;22.60;;
75054;SDS011;63636;44.746;10.488;2022-12-01T05:46:57;46.55;;;21.38;;
75054;SDS011;63636;44.746;10.488;2022-12-01T05:49:22;50.60;;;22.20;;
75054;SDS011;63636;44.746;10.488;2022-12-01T05:51:48;51.63;;;22.77;;
75054;SDS011;63636;44.746;10.488;2022-12-01T05:54:13;53.60;;;22.48;;
75054;SDS011;63636;44.746;10.488;2022-12-01T05:56:40;51.15;;;22.63;;
75054;SDS011;63636;44.746;10.488;2022-12-01T05:59:06;50.25;;;22.80;;
75054;SDS011;63636;44.746;10.488;2022-12-01T06:01:31;49.70;;;22.65;;
75054;SDS011;63636;44.746;10.488;2022-12-01T06:03:57;49.05;;;22.70;;
75054;SDS011;63636;44.746;10.488;2022-12-01T06:06:22;47.70;;;21.02;;
75054;SDS011;63636;44.746;10.488;2022-12-01T06:08:48;46.17;;;21.23;;
75054;SDS011;63636;44.746;10.488;2022-12-01T06:11:13;46.40;;;21.70;;
75054;SDS011;63636;44.746;10.488;2022-12-01T06:13:39;45.53;;;20.50;;
75054;SDS011;63636;44.746;10.488;2022-12-01T06:16:05;49.35;;;21.73;;
75054;SDS011;63636;44.746;10.488;2022-12-01T06:18:34;46.38;;;20.88;;
75054;SDS011;63636;44.746;10.488;2022-12-01T06:21:00;56.55;;;24.80;;
75054;SDS011;63636;44.746;10.488;2022-12-01T06:23:26;57.70;;;25.38;;
75054;SDS011;63636;44.746;10.488;2022-12-01T06:25:52;53.47;;;24.58;;
75054;SDS011;63636;44.746;10.488;2022-12-01T06:28:17;49.53;;;21.88;;
75054;SDS011;63636;44.746;10.488;2022-12-01T06:30:43;47.92;;;21.30;;
75054;SDS011;63636;44.746;10.488;2022-12-01T06:33:09;49.53;;;22.73;;
75054;SDS011;63636;44.746;10.488;2022-12-01T06:35:34;50.00;;;21.23;;
75054;SDS011;63636;44.746;10.488;2022-12-01T06:38:00;49.75;;;22.42;;
75054;SDS011;63636;44.746;10.488;2022-12-01T06:40:26;50.53;;;21.23;;
75054;SDS011;63636;44.746;10.488;2022-12-01T06:42:51;49.33;;;22.55;;
75054;SDS011;63636;44.746;10.488;2022-12-01T06:45:17;49.95;;;21.95;;
75054;SDS011;63636;44.746;10.488;2022-12-01T06:47:42;47.67;;;21.40;;
75054;SDS011;63636;44.746;10.488;2022-12-01T06:50:08;48.38;;;21.70;;
75054;SDS011;63636;44.746;10.488;2022-12-01T06:52:36;47.55;;;20.75;;
75054;SDS011;63636;44.746;10.488;2022-12-01T06:55:02;51.55;;;22.05;;
75054;SDS011;63636;44.746;10.488;2022-12-01T06:57:28;51.63;;;21.83;;
75054;SDS011;63636;44.746;10.488;2022-12-01T06:59:54;47.30;;;22.15;;
75054;SDS011;63636;44.746;10.488;2022-12-01T07:02:20;48.33;;;21.35;;
75054;SDS011;63636;44.746;10.488;2022-12-01T07:04:45;46.42;;;22.13;;
75054;SDS011;63636;44.746;10.488;2022-12-01T07:07:11;54.30;;;22.60;;
75054;SDS011;63636;44.746;10.488;2022-12-01T07:09:37;50.47;;;22.48;;
75054;SDS011;63636;44.746;10.488;2022-12-01T07:12:02;49.95;;;21.75;;
75054;SDS011;63636;44.746;10.488;2022-12-01T07:14:28;49.95;;;21.88;;
75054;SDS011;63636;44.746;10.488;2022-12-01T07:16:56;48.40;;;22.52;;
75054;SDS011;63636;44.746;10.488;2022-12-01T07:19:22;47.45;;;22.17;;
75054;SDS011;63636;44.746;10.488;2022-12-01T07:21:47;49.33;;;22.63;;
75054;SDS011;63636;44.746;10.488;2022-12-01T07:24:13;46.97;;;21.80;;
75054;SDS011;63636;44.746;10.488;2022-12-01T07:26:39;51.78;;;22.55;;
75054;SDS011;63636;44.746;10.488;2022-12-01T07:29:05;49.78;;;22.48;;
75054;SDS011;63636;44.746;10.488;2022-12-01T07:31:31;50.80;;;23.40;;
75054;SDS011;63636;44.746;10.488;2022-12-01T07:33:57;49.92;;;22.95;;
75054;SDS011;63636;44.746;10.488;2022-12-01T07:36:22;54.53;;;22.58;;
75054;SDS011;63636;44.746;10.488;2022-12-01T07:38:48;47.83;;;22.98;;
75054;SDS011;63636;44.746;10.488;2022-12-01T07:41:14;49.65;;;22.15;;
75054;SDS011;63636;44.746;10.488;2022-12-01T07:43:41;53.75;;;22.50;;
75054;SDS011;63636;44.746;10.488;2022-12-01T07:46:07;50.60;;;22.83;;
75054;SDS011;63636;44.746;10.488;2022-12-01T07:48:34;55.97;;;24.20;;
75054;SDS011;63636;44.746;10.488;2022-12-01T07:51:00;49.35;;;23.88;;
75054;SDS011;63636;44.746;10.488;2022-12-01T07:53:25;54.55;;;24.83;;
75054;SDS011;63636;44.746;10.488;2022-12-01T07:55:51;50.72;;;24.25;;
75054;SDS011;63636;44.746;10.488;2022-12-01T07:58:16;49.38;;;23.15;;
75054;SDS011;63636;44.746;10.488;2022-12-01T08:00:42;53.15;;;24.13;;
75054;SDS011;63636;44.746;10.488;2022-12-01T08:03:08;52.22;;;24.30;;
75054;SDS011;63636;44.746;10.488;2022-12-01T08:05:33;53.30;;;23.98;;
75054;SDS011;63636;44.746;10.488;2022-12-01T08:08:00;51.85;;;24.80;;
75054;SDS011;63636;44.746;10.488;2022-12-01T08:10:26;49.33;;;24.23;;
75054;SDS011;63636;44.746;10.488;2022-12-01T08:12:51;54.00;;;23.50;;
75054;SDS011;63636;44.746;10.488;2022-12-01T08:15:17;50.17;;;24.42;;
75054;SDS011;63636;44.746;10.488;2022-12-01T08:17:42;50.78;;;23.08;;
75054;SDS011;63636;44.746;10.488;2022-12-01T08:20:09;53.65;;;24.75;;
75054;SDS011;63636;44.746;10.488;2022-12-01T08:22:34;49.10;;;24.92;;
75054;SDS011;63636;44.746;10.488;2022-12-01T08:25:00;57.40;;;25.23;;
75054;SDS011;63636;44.746;10.488;2022-12-01T08:27:27;47.28;;;23.30;;
75054;SDS011;63636;44.746;10.488;2022-12-01T08:29:53;53.92;;;24.88;;
75054;SDS011;63636;44.746;10.488;2022-12-01T08:32:19;51.90;;;24.65;;
75054;SDS011;63636;44.746;10.488;2022-12-01T08:34:45;49.55;;;25.10;;
75054;SDS011;63636;44.746;10.488;2022-12-01T08:37:11;52.47;;;25.13;;
75054;SDS011;63636;44.746;10.488;2022-12-01T08:39:40;50.67;;;25.05;;
75054;SDS011;63636;44.746;10.488;2022-12-01T08:42:09;48.10;;;23.43;;
75054;SDS011;63636;44.746;10.488;2022-12-01T08:44:35;48.88;;;24.15;;
75054;SDS011;63636;44.746;10.488;2022-12-01T08:47:00;51.13;;;23.60;;
75054;SDS011;63636;44.746;10.488;2022-12-01T08:49:36;52.70;;;24.75;;
75054;SDS011;63636;44.746;10.488;2022-12-01T08:52:02;51.00;;;24.45;;
75054;SDS011;63636;44.746;10.488;2022-12-01T08:54:31;53.55;;;24.98;;
75054;SDS011;63636;44.746;10.488;2022-12-01T08:56:57;52.47;;;25.33;;
75054;SDS011;63636;44.746;10.488;2022-12-01T08:59:23;52.30;;;24.92;;
75054;SDS011;63636;44.746;10.488;2022-12-01T09:01:50;52.97;;;25.33;;
75054;SDS011;63636;44.746;10.488;2022-12-01T09:04:22;50.80;;;24.65;;
75054;SDS011;63636;44.746;10.488;2022-12-01T09:06:49;54.83;;;25.60;;
75054;SDS011;63636;44.746;10.488;2022-12-01T09:09:17;52.92;;;24.42;;
75054;SDS011;63636;44.746;10.488;2022-12-01T09:11:44;54.88;;;25.67;;
75054;SDS011;63636;44.746;10.488;2022-12-01T09:14:11;53.53;;;24.65;;
75054;SDS011;63636;44.746;10.488;2022-12-01T09:16:40;54.25;;;24.38;;
75054;SDS011;63636;44.746;10.488;2022-12-01T09:19:07;53.97;;;24.98;;
75054;SDS011;63636;44.746;10.488;2022-12-01T09:21:34;53.78;;;24.52;;
75054;SDS011;63636;44.746;10.488;2022-12-01T09:24:02;50.22;;;23.58;;
75054;SDS011;63636;44.746;10.488;2022-12-01T09:26:29;51.72;;;25.02;;
75054;SDS011;63636;44.746;10.488;2022-12-01T09:28:56;50.88;;;23.50;;
75054;SDS011;63636;44.746;10.488;2022-12-01T09:31:23;52.60;;;23.75;;
75054;SDS011;63636;44.746;10.488;2022-12-01T09:33:53;53.75;;;23.95;;
75054;SDS011;63636;44.746;10.488;2022-12-01T09:36:19;50.58;;;24.00;;
75054;SDS011;63636;44.746;10.488;2022-12-01T09:38:45;53.97;;;24.95;;
75054;SDS011;63636;44.746;10.488;2022-12-01T09:41:14;50.67;;;24.77;;
75054;SDS011;63636;44.746;10.488;2022-12-01T09:43:45;50.78;;;24.00;;
75054;SDS011;63636;44.746;10.488;2022-12-01T09:46:17;54.60;;;24.58;;
75054;SDS011;63636;44.746;10.488;2022-12-01T09:48:45;54.42;;;24.90;;
75054;SDS011;63636;44.746;10.488;2022-12-01T09:51:21;52.03;;;25.02;;
75054;SDS011;63636;44.746;10.488;2022-12-01T09:53:50;56.63;;;25.90;;
75054;SDS011;63636;44.746;10.488;2022-12-01T09:56:24;56.00;;;26.55;;
75054;SDS011;63636;44.746;10.488;2022-12-01T09:58:51;54.22;;;25.17;;
75054;SDS011;63636;44.746;10.488;2022-12-01T10:01:18;54.17;;;26.30;;
75054;SDS011;63636;44.746;10.488;2022-12-01T10:03:46;60.00;;;27.13;;
75054;SDS011;63636;44.746;10.488;2022-12-01T10:06:14;58.28;;;26.45;;
75054;SDS011;63636;44.746;10.488;2022-12-01T10:09:20;56.95;;;26.63;;
75054;SDS011;63636;44.746;10.488;2022-12-01T10:11:37;60.03;;;25.98;;
75054;SDS011;63636;44.746;10.488;2022-12-01T10:14:04;57.97;;;27.23;;
75054;SDS011;63636;44.746;10.488;2022-12-01T10:16:36;66.70;;;28.63;;
75054;SDS011;63636;44.746;10.488;2022-12-01T10:27:07;65.13;;;28.63;;
75054;SDS011;63636;44.746;10.488;2022-12-01T10:31:53;64.85;;;28.80;;
75054;SDS011;63636;44.746;10.488;2022-12-01T10:34:29;64.07;;;27.80;;
75054;SDS011;63636;44.746;10.488;2022-12-01T10:36:56;61.67;;;28.75;;
75054;SDS011;63636;44.746;10.488;2022-12-01T10:39:25;63.15;;;28.73;;
75054;SDS011;63636;44.746;10.488;2022-12-01T10:41:51;60.30;;;28.55;;
75054;SDS011;63636;44.746;10.488;2022-12-01T10:44:20;60.97;;;29.15;;
75054;SDS011;63636;44.746;10.488;2022-12-01T10:49:14;60.90;;;28.92;;
75054;SDS011;63636;44.746;10.488;2022-12-01T10:51:53;65.43;;;29.83;;
75054;SDS011;63636;44.746;10.488;2022-12-01T10:54:20;62.00;;;29.45;;
75054;SDS011;63636;44.746;10.488;2022-12-01T10:56:47;65.80;;;29.65;;
75054;SDS011;63636;44.746;10.488;2022-12-01T10:59:24;63.75;;;28.50;;
75054;SDS011;63636;44.746;10.488;2022-12-01T11:01:51;62.60;;;28.23;;
75054;SDS011;63636;44.746;10.488;2022-12-01T11:07:02;62.33;;;29.05;;
75054;SDS011;63636;44.746;10.488;2022-12-01T11:09:28;62.03;;;28.80;;
75054;SDS011;63636;44.746;10.488;2022-12-01T11:11:55;64.47;;;29.70;;
75054;SDS011;63636;44.746;10.488;2022-12-01T11:14:27;62.80;;;29.05;;
75054;SDS011;63636;44.746;10.488;2022-12-01T11:19:29;64.47;;;28.75;;
75054;SDS011;63636;44.746;10.488;2022-12-01T11:22:00;64.60;;;29.60;;
75054;SDS011;63636;44.746;10.488;2022-12-01T11:24:38;64.10;;;29.13;;
75054;SDS011;63636;44.746;10.488;2022-12-01T11:27:14;62.50;;;29.38;;
75054;SDS011;63636;44.746;10.488;2022-12-01T11:29:40;66.65;;;31.08;;
75054;SDS011;63636;44.746;10.488;2022-12-01T11:35:13;64.30;;;29.30;;
75054;SDS011;63636;44.746;10.488;2022-12-01T11:37:38;59.28;;;28.65;;
75054;SDS011;63636;44.746;10.488;2022-12-01T11:40:12;61.57;;;27.57;;
75054;SDS011;63636;44.746;10.488;2022-12-01T11:42:39;61.97;;;27.27;;
75054;SDS011;63636;44.746;10.488;2022-12-01T11:47:56;63.08;;;28.90;;
75054;SDS011;63636;44.746;10.488;2022-12-01T11:50:23;66.47;;;30.03;;
75054;SDS011;63636;44.746;10.488;2022-12-01T11:52:49;62.13;;;28.08;;
75054;SDS011;63636;44.746;10.488;2022-12-01T11:57:40;58.80;;;27.73;;
75054;SDS011;63636;44.746;10.488;2022-12-01T12:00:18;59.47;;;27.67;;
75054;SDS011;63636;44.746;10.488;2022-12-01T12:18:26;65.25;;;27.95;;
75054;SDS011;63636;44.746;10.488;2022-12-01T12:26:28;57.88;;;24.60;;
75054;SDS011;63636;44.746;10.488;2022-12-01T12:29:13;51.05;;;23.58;;
75054;SDS011;63636;44.746;10.488;2022-12-01T12:32:06;52.40;;;23.02;;
75054;SDS011;63636;44.746;10.488;2022-12-01T12:37:29;53.78;;;24.23;;
75054;SDS011;63636;44.746;10.488;2022-12-01T12:39:59;56.65;;;25.45;;
75054;SDS011;63636;44.746;10.488;2022-12-01T12:45:32;59.63;;;24.92;;
75054;SDS011;63636;44.746;10.488;2022-12-01T12:53:14;58.35;;;25.27;;
75054;SDS011;63636;44.746;10.488;2022-12-01T12:55:43;55.63;;;24.60;;
75054;SDS011;63636;44.746;10.488;2022-12-01T12:58:12;53.70;;;24.55;;
75054;SDS011;63636;44.746;10.488;2022-12-01T13:00:43;49.20;;;23.08;;
75054;SDS011;63636;44.746;10.488;2022-12-01T13:05:41;54.50;;;24.27;;
75054;SDS011;63636;44.746;10.488;2022-12-01T13:15:48;52.60;;;24.05;;
75054;SDS011;63636;44.746;10.488;2022-12-01T13:18:25;44.97;;;20.98;;
75054;SDS011;63636;44.746;10.488;2022-12-01T13:20:52;45.28;;;21.88;;
75054;SDS011;63636;44.746;10.488;2022-12-01T13:23:19;50.63;;;22.63;;
75054;SDS011;63636;44.746;10.488;2022-12-01T13:25:47;46.88;;;21.42;;
75054;SDS011;63636;44.746;10.488;2022-12-01T13:28:21;50.35;;;23.88;;
75054;SDS011;63636;44.746;10.488;2022-12-01T13:33:25;52.90;;;23.48;;
75054;SDS011;63636;44.746;10.488;2022-12-01T13:35:51;57.00;;;24.80;;
75054;SDS011;63636;44.746;10.488;2022-12-01T13:40:42;53.63;;;24.33;;
75054;SDS011;63636;44.746;10.488;2022-12-01T13:43:14;56.67;;;25.98;;
75054;SDS011;63636;44.746;10.488;2022-12-01T13:45:41;55.55;;;25.48;;
75054;SDS011;63636;44.746;10.488;2022-12-01T13:48:25;59.45;;;26.30;;
75054;SDS011;63636;44.746;10.488;2022-12-01T13:50:55;64.55;;;26.80;;
75054;SDS011;63636;44.746;10.488;2022-12-01T13:58:24;57.35;;;27.13;;
75054;SDS011;63636;44.746;10.488;2022-12-01T14:00:52;57.63;;;25.77;;
75054;SDS011;63636;44.746;10.488;2022-12-01T14:08:30;51.20;;;25.02;;
75054;SDS011;63636;44.746;10.488;2022-12-01T14:10:58;52.55;;;25.10;;
75054;SDS011;63636;44.746;10.488;2022-12-01T14:13:24;52.53;;;24.40;;
75054;SDS011;63636;44.746;10.488;2022-12-01T14:15:52;49.00;;;24.02;;
75054;SDS011;63636;44.746;10.488;2022-12-01T14:18:32;53.15;;;23.33;;
75054;SDS011;63636;44.746;10.488;2022-12-01T14:20:59;55.22;;;25.13;;
75054;SDS011;63636;44.746;10.488;2022-12-01T14:23:29;53.55;;;25.02;;
75054;SDS011;63636;44.746;10.488;2022-12-01T14:31:10;55.72;;;25.70;;
75054;SDS011;63636;44.746;10.488;2022-12-01T14:36:02;57.22;;;26.38;;
75054;SDS011;63636;44.746;10.488;2022-12-01T14:38:29;59.97;;;26.92;;
75054;SDS011;63636;44.746;10.488;2022-12-01T14:40:56;58.75;;;26.38;;
75054;SDS011;63636;44.746;10.488;2022-12-01T14:43:24;57.10;;;27.33;;
75054;SDS011;63636;44.746;10.488;2022-12-01T14:46:10;65.22;;;27.02;;
75054;SDS011;63636;44.746;10.488;2022-12-01T14:48:38;60.00;;;28.52;;
75054;SDS011;63636;44.746;10.488;2022-12-01T14:51:15;66.70;;;29.55;;
75054;SDS011;63636;44.746;10.488;2022-12-01T14:53:43;71.10;;;29.70;;
75054;SDS011;63636;44.746;10.488;2022-12-01T14:56:11;73.05;;;30.90;;
75054;SDS011;63636;44.746;10.488;2022-12-01T14:58:38;67.60;;;30.27;;
75054;SDS011;63636;44.746;10.488;2022-12-01T15:01:14;64.80;;;28.90;;
75054;SDS011;63636;44.746;10.488;2022-12-01T15:03:41;62.85;;;29.02;;
75054;SDS011;63636;44.746;10.488;2022-12-01T15:06:07;68.93;;;29.48;;
75054;SDS011;63636;44.746;10.488;2022-12-01T15:08:34;65.13;;;29.40;;
75054;SDS011;63636;44.746;10.488;2022-12-01T15:11:01;65.22;;;29.80;;
75054;SDS011;63636;44.746;10.488;2022-12-01T15:13:28;65.50;;;30.17;;
75054;SDS011;63636;44.746;10.488;2022-12-01T15:18:27;64.10;;;28.73;;
75054;SDS011;63636;44.746;10.488;2022-12-01T15:23:24;67.35;;;29.52;;
75054;SDS011;63636;44.746;10.488;2022-12-01T15:25:49;66.88;;;31.08;;
75054;SDS011;63636;44.746;10.488;2022-12-01T15:28:16;70.93;;;30.88;;
75054;SDS011;63636;44.746;10.488;2022-12-01T15:30:43;75.65;;;31.98;;
75054;SDS011;63636;44.746;10.488;2022-12-01T15:33:52;77.80;;;32.55;;
75054;SDS011;63636;44.746;10.488;2022-12-01T15:35:59;72.10;;;31.70;;
75054;SDS011;63636;44.746;10.488;2022-12-01T15:38:32;77.07;;;32.92;;
75054;SDS011;63636;44.746;10.488;2022-12-01T15:40:59;71.85;;;32.47;;
75054;SDS011;63636;44.746;10.488;2022-12-01T15:43:32;70.80;;;32.03;;
75054;SDS011;63636;44.746;10.488;2022-12-01T15:46:10;76.85;;;33.33;;
75054;SDS011;63636;44.746;10.488;2022-12-01T15:48:36;75.80;;;33.13;;
75054;SDS011;63636;44.746;10.488;2022-12-01T15:53:37;72.63;;;31.02;;
75054;SDS011;63636;44.746;10.488;2022-12-01T15:56:05;71.95;;;31.58;;
75054;SDS011;63636;44.746;10.488;2022-12-01T15:58:32;70.85;;;30.50;;
75054;SDS011;63636;44.746;10.488;2022-12-01T16:01:08;74.40;;;31.42;;
75054;SDS011;63636;44.746;10.488;2022-12-01T16:03:57;78.30;;;32.92;;
75054;SDS011;63636;44.746;10.488;2022-12-01T16:06:21;72.25;;;31.73;;
75054;SDS011;63636;44.746;10.488;2022-12-01T16:08:56;71.75;;;31.42;;
75054;SDS011;63636;44.746;10.488;2022-12-01T16:11:23;78.35;;;32.22;;
75054;SDS011;63636;44.746;10.488;2022-12-01T16:16:29;70.20;;;32.13;;
75054;SDS011;63636;44.746;10.488;2022-12-01T16:18:56;71.60;;;32.20;;
75054;SDS011;63636;44.746;10.488;2022-12-01T16:21:22;71.45;;;31.00;;
75054;SDS011;63636;44.746;10.488;2022-12-01T16:23:47;73.03;;;31.58;;
75054;SDS011;63636;44.746;10.488;2022-12-01T16:26:13;73.78;;;31.63;;
75054;SDS011;63636;44.746;10.488;2022-12-01T16:28:39;71.35;;;31.08;;
75054;SDS011;63636;44.746;10.488;2022-12-01T16:31:05;73.50;;;31.85;;
75054;SDS011;63636;44.746;10.488;2022-12-01T16:33:31;74.20;;;31.38;;
75054;SDS011;63636;44.746;10.488;2022-12-01T16:35:59;79.70;;;32.40;;
75054;SDS011;63636;44.746;10.488;2022-12-01T16:38:25;77.00;;;33.53;;
75054;SDS011;63636;44.746;10.488;2022-12-01T16:40:53;77.60;;;32.38;;
75054;SDS011;63636;44.746;10.488;2022-12-01T16:43:20;75.38;;;31.75;;